createdAt,value
2019-06-15T00:01:36.082Z,10.03
2019-06-15T00:06:32.762Z,9.87
2019-06-15T00:11:28.298Z,10.20
2019-06-15T00:16:25.656Z,10.20
2019-06-15T00:21:21.195Z,10.57
2019-06-15T00:26:16.715Z,10.47
2019-06-15T00:31:12.291Z,10.40
2019-06-15T00:36:07.843Z,11.10
2019-06-15T00:41:03.379Z,10.27
2019-06-15T00:45:59.134Z,9.53
2019-06-15T00:50:54.690Z,10.43
2019-06-15T00:55:50.593Z,10.00
2019-06-15T01:00:46.155Z,10.73
2019-06-15T01:05:41.810Z,10.10
2019-06-15T01:10:37.344Z,11.33
2019-06-15T01:15:32.864Z,10.80
2019-06-15T01:20:28.456Z,10.43
2019-06-15T01:25:24.070Z,10.27
2019-06-15T01:30:19.718Z,10.23
2019-06-15T01:35:16.942Z,10.60
2019-06-15T01:40:12.870Z,10.53
2019-06-15T01:45:08.730Z,10.40
2019-06-15T01:50:04.592Z,10.73
2019-06-15T01:55:00.131Z,10.20
2019-06-15T01:59:58.878Z,10.10
2019-06-15T02:04:54.397Z,11.17
2019-06-15T02:09:49.947Z,10.87
2019-06-15T02:14:45.494Z,11.13
2019-06-15T02:19:41.019Z,10.93
2019-06-15T02:24:36.559Z,10.53
2019-06-15T02:29:32.152Z,10.53
2019-06-15T02:34:27.706Z,10.40
2019-06-15T02:39:23.228Z,10.70
2019-06-15T02:44:19.150Z,9.97
2019-06-15T02:49:14.878Z,10.10
2019-06-15T02:54:10.521Z,10.27
2019-06-15T02:59:06.179Z,10.87
2019-06-15T03:04:01.723Z,10.13
2019-06-15T03:08:57.939Z,10.87
2019-06-15T03:13:54.359Z,10.17
2019-06-15T03:18:49.908Z,10.57
2019-06-15T03:23:45.442Z,10.37
2019-06-15T03:28:40.958Z,10.67
2019-06-15T03:33:36.495Z,11.30
2019-06-15T03:38:32.038Z,11.20
2019-06-15T03:43:27.684Z,10.27
2019-06-15T03:48:23.223Z,10.73
2019-06-15T03:53:18.773Z,11.40
2019-06-15T03:58:14.298Z,11.20
2019-06-15T04:03:09.985Z,10.90
2019-06-15T04:08:05.510Z,11.13
2019-06-15T04:13:01.041Z,10.30
2019-06-15T04:17:56.550Z,10.50
2019-06-15T04:22:52.102Z,10.10
2019-06-15T04:27:47.871Z,11.00
2019-06-15T04:32:43.412Z,10.40
2019-06-15T04:37:41.230Z,10.30
2019-06-15T04:42:36.737Z,9.87
2019-06-15T04:47:32.453Z,11.10
2019-06-15T04:52:27.993Z,10.77
2019-06-15T04:57:23.578Z,10.13
2019-06-15T05:02:19.123Z,10.83
2019-06-15T05:07:15.155Z,10.60
2019-06-15T05:12:11.698Z,10.37
2019-06-15T05:17:07.511Z,10.20
2019-06-15T05:22:03.108Z,10.47
2019-06-15T05:27:06.324Z,9.60
2019-06-15T05:31:55.952Z,10.10
2019-06-15T05:36:51.504Z,9.43
2019-06-15T05:41:47.025Z,10.13
2019-06-15T05:46:42.612Z,10.50
2019-06-15T05:51:38.137Z,10.67
2019-06-15T05:56:33.672Z,10.00
2019-06-15T06:01:29.222Z,9.77
2019-06-15T06:06:24.804Z,10.13
2019-06-15T06:11:21.411Z,9.83
2019-06-15T06:16:16.982Z,10.07
2019-06-15T06:21:12.505Z,10.13
2019-06-15T06:26:08.037Z,9.60
2019-06-15T06:31:03.703Z,8.57
2019-06-15T06:35:59.286Z,8.63
2019-06-15T06:40:54.864Z,9.13
2019-06-15T06:45:51.502Z,8.73
2019-06-15T06:50:47.006Z,9.27
2019-06-15T06:55:42.690Z,8.93
2019-06-15T07:00:38.243Z,8.73
2019-06-15T07:05:33.797Z,9.43
2019-06-15T07:10:29.315Z,9.30
2019-06-15T07:15:25.717Z,11.53
2019-06-15T07:20:21.445Z,9.00
2019-06-15T07:25:16.970Z,9.38
2019-06-15T07:30:12.919Z,9.25
2019-06-15T07:35:11.335Z,7.85
2019-06-15T07:40:07.119Z,8.70
2019-06-15T07:45:02.742Z,7.62
2019-06-15T07:49:58.434Z,7.65
2019-06-15T07:54:54.006Z,9.40
2019-06-15T07:59:49.593Z,7.80
2019-06-15T08:04:45.171Z,8.90
2019-06-15T08:09:40.855Z,7.40
2019-06-15T08:14:36.545Z,9.40
2019-06-15T08:19:32.150Z,7.65
2019-06-15T08:24:27.905Z,7.72
2019-06-15T08:29:23.601Z,8.13
2019-06-15T08:34:19.273Z,8.43
2019-06-15T08:39:14.970Z,8.08
2019-06-15T08:44:11.415Z,8.33
2019-06-15T08:49:07.084Z,8.10
2019-06-15T08:54:02.795Z,7.40
2019-06-15T08:58:58.525Z,7.92
2019-06-15T09:03:55.216Z,7.97
2019-06-15T09:08:57.752Z,8.25
2019-06-15T09:13:54.782Z,8.23
2019-06-15T09:18:50.451Z,8.68
2019-06-15T09:23:46.196Z,7.80
2019-06-15T09:28:41.825Z,7.80
2019-06-15T09:33:37.585Z,8.25
2019-06-15T09:38:34.615Z,8.58
2019-06-15T09:43:30.274Z,8.05
2019-06-15T09:48:25.931Z,7.83
2019-06-15T09:53:21.591Z,8.03
2019-06-15T09:58:17.248Z,8.65
2019-06-15T10:03:13.173Z,7.92
2019-06-15T10:08:08.829Z,8.03
2019-06-15T10:13:04.574Z,8.00
2019-06-15T10:18:00.207Z,7.85
2019-06-15T10:22:55.928Z,8.95
2019-06-15T10:27:51.923Z,8.70
2019-06-15T10:32:47.647Z,8.75
2019-06-15T10:37:43.273Z,7.80
2019-06-15T10:42:38.891Z,8.18
2019-06-15T10:47:34.576Z,8.70
2019-06-15T10:52:30.247Z,8.93
2019-06-15T10:57:25.956Z,8.48
2019-06-15T11:02:21.568Z,9.15
2019-06-15T11:07:17.415Z,8.85
2019-06-15T11:12:13.163Z,9.88
2019-06-15T11:17:08.856Z,9.28
2019-06-15T11:22:04.508Z,9.38
2019-06-15T11:27:01.184Z,8.33
2019-06-15T11:31:56.798Z,8.80
2019-06-15T11:36:52.416Z,9.20
2019-06-15T11:41:48.042Z,9.23
2019-06-15T11:46:43.739Z,8.55
2019-06-15T11:51:39.331Z,8.90
2019-06-15T11:56:35.001Z,9.18
2019-06-15T12:01:30.797Z,8.20
2019-06-15T12:06:26.435Z,8.83
2019-06-15T12:11:22.222Z,9.00
2019-06-15T12:16:17.837Z,8.10
2019-06-15T12:21:13.535Z,9.05
2019-06-15T12:26:10.198Z,9.15
2019-06-15T12:31:05.968Z,9.43
2019-06-15T12:36:01.774Z,9.50
2019-06-15T12:40:57.527Z,10.30
2019-06-15T12:45:53.543Z,10.23
2019-06-15T12:50:49.326Z,10.30
2019-06-15T12:55:45.149Z,11.70
2019-06-15T13:00:41.075Z,11.55
2019-06-15T13:05:36.752Z,12.07
2019-06-15T13:10:33.472Z,11.70
2019-06-15T13:15:29.109Z,11.73
2019-06-15T13:20:29.105Z,12.03
2019-06-15T13:25:24.776Z,11.43
2019-06-15T13:30:21.753Z,11.93
2019-06-15T13:35:17.936Z,11.20
2019-06-15T13:40:14.209Z,13.93
2019-06-15T13:45:11.606Z,11.88
2019-06-15T13:50:07.390Z,11.35
2019-06-15T13:55:05.025Z,11.25
2019-06-15T14:00:00.602Z,12.23
2019-06-15T14:04:56.242Z,11.95
2019-06-15T14:09:53.243Z,10.55
2019-06-15T14:14:48.845Z,11.28
2019-06-15T14:19:44.558Z,11.20
2019-06-15T14:24:40.166Z,10.78
2019-06-15T14:29:36.799Z,10.90
2019-06-15T14:34:33.446Z,10.08
2019-06-15T14:39:29.076Z,10.50
2019-06-15T14:44:24.744Z,9.65
2019-06-15T14:49:20.267Z,10.38
2019-06-15T14:54:16.274Z,10.38
2019-06-15T14:59:11.931Z,9.15
2019-06-15T15:04:07.511Z,8.98
2019-06-15T15:09:03.107Z,8.60
2019-06-15T15:14:00.362Z,8.68
2019-06-15T15:18:56.715Z,7.72
2019-06-15T15:23:52.367Z,8.20
2019-06-15T15:28:47.951Z,7.50
2019-06-15T15:33:43.534Z,7.35
2019-06-15T15:38:39.091Z,7.22
2019-06-15T15:43:36.775Z,7.40
2019-06-15T15:48:31.907Z,7.28
2019-06-15T15:53:27.483Z,6.80
2019-06-15T15:58:23.105Z,6.75
2019-06-15T16:03:18.731Z,7.40
2019-06-15T16:08:16.351Z,7.33
2019-06-15T16:13:11.633Z,6.75
2019-06-15T16:23:24.634Z,7.05
2019-06-15T16:28:20.271Z,6.65
2019-06-15T16:33:16.287Z,6.85
2019-06-15T16:38:12.002Z,7.40
2019-06-15T16:43:07.698Z,6.65
2019-06-15T16:48:03.382Z,6.50
2019-06-15T16:52:59.071Z,7.00
2019-06-15T16:57:56.641Z,6.67
2019-06-15T17:02:51.859Z,6.45
2019-06-15T17:07:48.789Z,6.80
2019-06-15T17:12:44.454Z,6.92
2019-06-15T17:17:40.060Z,7.33
2019-06-15T17:22:37.870Z,6.17
2019-06-15T17:27:37.299Z,6.65
2019-06-15T17:32:31.131Z,6.40
2019-06-15T17:37:26.806Z,7.05
2019-06-15T17:42:22.443Z,6.53
2019-06-15T17:47:18.030Z,6.90
2019-06-15T17:52:13.671Z,6.42
2019-06-15T17:57:10.438Z,6.70
2019-06-15T18:02:06.966Z,6.50
2019-06-15T18:07:02.540Z,6.83
2019-06-15T18:11:58.130Z,6.80
2019-06-15T18:16:53.791Z,6.70
2019-06-15T18:21:49.368Z,6.37
2019-06-15T18:26:47.186Z,7.97
2019-06-15T18:31:42.204Z,6.90
2019-06-15T18:36:37.778Z,6.60
2019-06-15T18:41:36.839Z,7.33
2019-06-15T18:46:30.587Z,7.80
2019-06-15T18:51:27.095Z,7.40
2019-06-15T18:56:22.819Z,7.28
2019-06-15T19:01:18.635Z,7.25
2019-06-15T19:06:16.586Z,7.15
2019-06-15T19:11:11.409Z,7.33
2019-06-15T19:16:08.095Z,7.10
2019-06-15T19:21:03.658Z,7.30
2019-06-15T19:25:59.204Z,9.73
2019-06-15T19:30:56.063Z,8.40
2019-06-15T19:35:51.902Z,8.38
2019-06-15T19:40:47.550Z,7.62
2019-06-15T19:45:43.115Z,8.58
2019-06-15T19:50:38.729Z,8.30
2019-06-15T19:55:36.145Z,7.90
2019-06-15T20:00:31.991Z,8.08
2019-06-15T20:05:28.884Z,7.70
2019-06-15T20:10:26.659Z,7.87
2019-06-15T20:15:26.127Z,8.50
2019-06-15T20:20:20.682Z,7.90
2019-06-15T20:25:16.709Z,8.70
2019-06-15T20:30:16.832Z,9.25
2019-06-15T20:35:17.413Z,8.98
2019-06-15T20:40:09.720Z,9.15
2019-06-15T20:45:06.849Z,8.18
2019-06-15T20:50:02.455Z,8.50
2019-06-15T20:54:59.094Z,8.45
2019-06-15T20:59:56.453Z,8.60
2019-06-15T21:04:51.835Z,8.38
2019-06-15T21:09:47.401Z,8.33
2019-06-15T21:14:42.984Z,7.83
2019-06-15T21:19:38.572Z,8.30
2019-06-15T21:24:34.142Z,9.25
2019-06-15T21:29:29.730Z,9.83
2019-06-15T21:34:26.516Z,9.10
2019-06-15T21:39:22.267Z,8.60
2019-06-15T21:44:17.912Z,9.63
2019-06-15T21:49:15.814Z,8.73
2019-06-15T21:54:10.871Z,9.33
2019-06-15T21:59:07.409Z,8.47
2019-06-15T22:04:06.419Z,8.83
2019-06-15T22:09:03.079Z,8.50
2019-06-15T22:13:59.027Z,8.80
2019-06-15T22:18:55.242Z,8.63
2019-06-15T22:23:50.851Z,8.27
2019-06-15T22:28:47.019Z,8.43
2019-06-15T22:33:44.006Z,8.77
2019-06-15T22:38:39.636Z,9.50
2019-06-15T22:43:36.374Z,8.50
2019-06-15T22:48:32.111Z,8.30
2019-06-15T22:53:27.703Z,8.30
2019-06-15T22:58:23.251Z,8.73
2019-06-15T23:03:18.827Z,8.73
2019-06-15T23:08:16.293Z,9.40
2019-06-15T23:13:11.656Z,8.50
2019-06-15T23:18:07.295Z,9.30
2019-06-15T23:23:02.879Z,9.10
2019-06-15T23:27:58.551Z,9.03
2019-06-15T23:32:56.028Z,8.47
2019-06-15T23:37:51.327Z,8.63
2019-06-15T23:42:46.898Z,8.90
2019-06-15T23:47:42.939Z,8.10
2019-06-15T23:52:38.519Z,9.00
2019-06-15T23:57:34.085Z,8.63
